Terminal Aerodrome Forecast
Issued by NWS

Home | Current Version | Previous Version | Text Only | Print | Product List | Glossary On
Versions: 1 2 3 4 5 6 7 8 9 10
309
FTUS46 KSTO 260524
TAFRBL
TAF
KRBL 260524Z 2606/2706 VRB05KT P6SM BKN090
     FM261200 16006KT P6SM -SHRA OVC035
     FM261600 16014G20KT P6SM -SHRA OVC025
     FM270300 32004KT P6SM BKN035=

USA.gov is the U.S. government's official web portal to all federal, state and local government web resources and services.